Terminal Aerodrome Forecast
Issued by NWS Missoula, MT

Home | Current Version | Previous Version | Text Only | Print | Product List | Glossary On
Versions: 1 2 3 4 5 6 7 8 9 10 11 12 13
000
FTUS45 KMSO 202300
TAFBTM
TAF
KBTM 202320Z 2100/2124 31014G20KT P6SM SKC
     FM210300 VRB03KT P6SM SKC
     FM212000 16012G20KT P6SM SCT150=

USA.gov is the U.S. government's official web portal to all federal, state and local government web resources and services.